This is the latest recevied weather packets stored in our database for station/object n3uvr. If no packets are shown the sender has not sent any weather packets the latest 10 day(s).
| Time | Temp. | Humidity | Pressure | Rain* | Wind** | Luminosity | Snow |
|---|---|---|---|---|---|---|---|
| 1777474182 | 13.33° C | 74% | 1012.5 hPa | 0 mm | - | 98 W/m² | - |
| 1777473196 | 13.33° C | 74% | 1012.4 hPa | 0 mm | - | 116 W/m² | - |
| 1777472134 | 13.33° C | 74% | 1012.3 hPa | 0 mm | - | 100 W/m² | - |
| 1777471102 | 12.78° C | 74% | 1012.4 hPa | 0 mm | - | 81 W/m² | - |
| 1777468542 | 12.78° C | 71% | 1013.3 hPa | 0 mm | - | 37 W/m² | - |
| 1777467940 | 12.78° C | 73% | 1013.3 hPa | 0 mm | - | 44 W/m² | - |
| 1777464956 | 12.22° C | 76% | 1013.5 hPa | 0 mm | - | 40 W/m² | - |
| 1777463108 | 11.67° C | 75% | 1013.4 hPa | 0 mm | - | 25 W/m² | - |
| 1777462516 | 11.67° C | 75% | 1013.4 hPa | 0 mm | - | 25 W/m² | - |
| 1777461238 | 11.67° C | 74% | 1013.6 hPa | 0 mm | - | 21 W/m² | - |
| 1777460601 | 11.67° C | 74% | 1013.7 hPa | 0 mm | - | 11 W/m² | - |
| 1777459751 | 11.67° C | 74% | 1013.8 hPa | 0 mm | - | 7 W/m² | - |
| 1777458809 | 11.67° C | 74% | 1013.8 hPa | 0 mm | - | 0 W/m² | - |
| 1777457775 | 11.67° C | 73% | 1013.7 hPa | 0 mm | - | 0 W/m² | - |
| 1777456831 | 11.67° C | 73% | 1013.5 hPa | 0 mm | - | 0 W/m² | - |
| 1777455840 | 11.67° C | 73% | 1013.6 hPa | - | - | 0 W/m² | - |
| 1777455347 | 11.67° C | 72% | 1013.8 hPa | 0 mm | - | 0 W/m² | - |
| 1777454758 | 11.67° C | 72% | 1013.8 hPa | 0 mm | - | 0 W/m² | - |
| 1777453557 | 11.67° C | 73% | 1014.1 hPa | 0 mm | - | 0 W/m² | - |
| 1777452962 | 11.67° C | 73% | 1014.3 hPa | 0 mm | - | 0 W/m² | - |
| 1777452331 | 11.67° C | 73% | 1014.3 hPa | 0 mm | - | 0 W/m² | - |
| 1777450515 | 11.67° C | 74% | 1014.2 hPa | 0 mm | - | 0 W/m² | - |
| 1777448127 | 11.67° C | 73% | 1014.2 hPa | 0 mm | - | 0 W/m² | - |
| 1777447514 | 11.67° C | 73% | 1014.2 hPa | 0 mm | - | 0 W/m² | - |
| 1777446906 | 11.67° C | 72% | 1014.3 hPa | 0 mm | - | 0 W/m² | - |
* Rain latest hour (hover to see other rain measurements)
** Current wind speed in m/s (hover to see current wind gust speed)